Time;durP1;ratioP1;P1;durP2;ratioP2;P2;SDS_P1;SDS_P2;PMS_P1;PMS_P2;Temp;Humidity;BMP_temperature;BMP_pressure;BME280_temperature;BME280_humidity;BME280_pressure;Samples;Min_cycle;Max_cycle;Signal;HPM_P1;HPM_P2
2022/09/29 00:00:47;;;;;;;1999.90;999.90;;;7.70;99.90;;;;;;5071383;28;20503;-75
2022/09/29 00:03:14;;;;;;;1999.90;999.90;;;7.70;99.90;;;;;;5071063;28;20461;-75
2022/09/29 00:05:47;;;;;;;1999.90;999.90;;;7.60;99.90;;;;;;5070450;28;20992;-75
2022/09/29 00:08:13;;;;;;;1999.90;999.90;;;8.10;99.90;;;;;;5071362;28;20483;-75
2022/09/29 00:10:41;;;;;;;1999.90;999.90;;;7.80;99.90;;;;;;5071017;28;20478;-75
2022/09/29 00:13:08;;;;;;;1999.90;999.90;;;7.80;99.90;;;;;;5073999;28;20460;-73
2022/09/29 00:15:35;;;;;;;1999.90;999.90;;;7.80;99.90;;;;;;5073100;28;20484;-73
2022/09/29 00:18:02;;;;;;;1999.90;999.90;;;7.90;99.90;;;;;;5073968;28;20457;-73
2022/09/29 00:20:28;;;;;;;1999.90;999.90;;;8.00;99.90;;;;;;5070013;28;20483;-73
2022/09/29 00:22:55;;;;;;;1999.90;999.90;;;8.00;99.90;;;;;;5073516;28;20457;-73
2022/09/29 00:25:22;;;;;;;1999.90;999.90;;;7.90;99.90;;;;;;5071677;28;20461;-73
2022/09/29 00:27:50;;;;;;;1999.90;999.90;;;8.30;99.90;;;;;;5071106;28;20983;-73
2022/09/29 00:30:17;;;;;;;1999.90;999.90;;;7.60;99.90;;;;;;5072945;28;20456;-75
2022/09/29 00:32:44;;;;;;;1999.90;999.90;;;7.50;99.90;;;;;;5073236;28;20457;-75
2022/09/29 00:35:10;;;;;;;1999.90;999.90;;;7.50;99.90;;;;;;5070589;28;20492;-75
2022/09/29 00:37:38;;;;;;;1999.90;999.90;;;7.40;99.90;;;;;;5069484;28;20515;-75
2022/09/29 00:40:06;;;;;;;1999.90;999.90;;;7.30;99.90;;;;;;5069977;28;20473;-74
2022/09/29 00:42:33;;;;;;;1999.90;999.90;;;7.30;99.90;;;;;;5072678;28;20517;-74
2022/09/29 00:45:17;;;;;;;1999.90;999.90;;;7.20;99.90;;;;;;5073806;28;20453;-74
2022/09/29 00:47:48;;;;;;;1999.90;999.90;;;7.20;99.90;;;;;;5089645;28;20519;-75
2022/09/29 00:50:19;;;;;;;1999.90;999.90;;;7.20;99.90;;;;;;5092000;28;20460;-74
2022/09/29 00:52:53;;;;;;;1999.90;999.90;;;7.20;99.90;;;;;;5087852;28;20445;-74
2022/09/29 00:55:24;;;;;;;1999.90;999.90;;;7.20;99.90;;;;;;5092057;28;20834;-74
2022/09/29 00:57:57;;;;;;;1999.90;999.90;;;7.20;99.90;;;;;;5078523;28;20453;-75
2022/09/29 01:00:25;;;;;;;1999.90;999.90;;;7.20;99.90;;;;;;5070173;28;21015;-74
2022/09/29 01:02:57;;;;;;;1999.90;999.90;;;7.20;99.90;;;;;;5069535;28;20457;-74
2022/09/29 01:05:28;;;;;;;1999.90;999.90;;;7.10;99.90;;;;;;5068760;28;20453;-74
2022/09/29 01:07:55;;;;;;;1999.90;999.90;;;7.10;99.90;;;;;;5071806;28;20481;-74
2022/09/29 01:10:23;;;;;;;1999.90;999.90;;;7.10;99.90;;;;;;5070254;28;20481;-73
2022/09/29 01:12:50;;;;;;;1999.90;999.90;;;7.00;99.90;;;;;;5069311;28;20491;-74
2022/09/29 01:15:19;;;;;;;1999.90;999.90;;;7.00;99.90;;;;;;5070093;28;20489;-74
2022/09/29 01:17:48;;;;;;;1999.90;999.90;;;7.00;99.90;;;;;;5070003;28;20457;-74
2022/09/29 01:20:19;;;;;;;1999.90;999.90;;;7.00;99.90;;;;;;5070712;28;20886;-74
2022/09/29 01:23:38;;;;;;;1999.90;999.90;;;7.00;99.90;;;;;;5068968;28;20469;-75
2022/09/29 01:26:38;;;;;;;1999.90;999.90;;;7.00;99.90;;;;;;5067385;28;20465;-75
2022/09/29 01:29:31;;;;;;;1999.90;999.90;;;7.00;99.90;;;;;;5067528;28;20495;-74
2022/09/29 01:32:07;;;;;;;1999.90;999.90;;;7.00;99.90;;;;;;5070200;28;20488;-75
2022/09/29 01:34:39;;;;;;;1999.90;999.90;;;6.90;99.90;;;;;;5066569;28;21121;-74
2022/09/29 01:37:16;;;;;;;1999.90;999.90;;;7.30;99.90;;;;;;5069578;28;20492;-75
2022/09/29 01:39:51;;;;;;;1999.90;999.90;;;6.90;99.90;;;;;;5071397;28;20472;-74
2022/09/29 01:42:22;;;;;;;1999.90;999.90;;;6.90;99.90;;;;;;5070558;28;20491;-74
2022/09/29 01:44:53;;;;;;;1999.90;999.90;;;6.80;99.90;;;;;;5069613;28;20456;-74
2022/09/29 01:47:25;;;;;;;1999.90;999.90;;;6.80;99.90;;;;;;5068875;28;20468;-74
2022/09/29 01:49:59;;;;;;;1999.90;999.90;;;6.80;99.90;;;;;;5071445;28;20465;-75
2022/09/29 01:52:30;;;;;;;1999.90;999.90;;;6.80;99.90;;;;;;5065863;28;20487;-74
2022/09/29 01:55:01;;;;;;;1999.90;999.90;;;6.80;99.90;;;;;;5072065;28;20465;-74
2022/09/29 01:57:32;;;;;;;1999.90;999.90;;;6.80;99.90;;;;;;5067949;28;20457;-74
2022/09/29 02:00:03;;;;;;;1999.90;999.90;;;6.70;99.90;;;;;;5071667;28;20441;-74
2022/09/29 02:02:37;;;;;;;1999.90;999.90;;;6.70;99.90;;;;;;5052842;28;20431;-75
2022/09/29 02:05:10;;;;;;;1999.90;999.90;;;6.60;99.90;;;;;;5064524;28;20461;-74
2022/09/29 02:07:41;;;;;;;1999.90;999.90;;;6.50;99.90;;;;;;5067462;28;20464;-74
2022/09/29 02:10:13;;;;;;;1999.90;999.90;;;6.40;99.90;;;;;;5068123;28;20468;-74
2022/09/29 02:12:43;;;;;;;1999.90;999.90;;;6.30;99.90;;;;;;5069764;28;20832;-74
2022/09/29 02:15:14;;;;;;;1999.90;999.90;;;6.20;99.90;;;;;;5068109;28;20454;-75
2022/09/29 02:17:46;;;;;;;1999.90;999.90;;;6.20;99.90;;;;;;5068362;28;20464;-74
2022/09/29 02:20:14;;;;;;;1999.90;999.90;;;6.20;99.90;;;;;;5068451;28;20457;-75
2022/09/29 02:22:41;;;;;;;1999.90;999.90;;;6.20;99.90;;;;;;5069590;28;20457;-74
2022/09/29 02:25:10;;;;;;;1999.90;999.90;;;6.30;99.90;;;;;;5069942;28;20465;-75
2022/09/29 02:27:37;;;;;;;1999.90;999.90;;;6.30;99.90;;;;;;5069422;28;20948;-74
2022/09/29 02:30:05;;;;;;;1999.90;999.90;;;6.30;99.90;;;;;;5071466;28;20468;-74
2022/09/29 02:32:35;;;;;;;1999.90;999.90;;;6.30;99.90;;;;;;5069157;28;21007;-74
2022/09/29 02:35:05;;;;;;;1999.90;999.90;;;6.20;99.90;;;;;;5071057;28;20457;-74
2022/09/29 02:37:43;;;;;;;1999.90;999.90;;;6.30;99.90;;;;;;5069334;28;20862;-74
2022/09/29 02:40:24;;;;;;;1999.90;999.90;;;6.30;99.90;;;;;;5070418;28;20489;-74
2022/09/29 02:43:01;;;;;;;1999.90;999.90;;;6.20;99.90;;;;;;5069137;28;20978;-75
2022/09/29 02:45:37;;;;;;;1999.90;999.90;;;6.20;99.90;;;;;;5066232;28;20459;-74
2022/09/29 02:48:27;;;;;;;1999.90;999.90;;;6.20;99.90;;;;;;5072272;28;20476;-75
2022/09/29 02:51:09;;;;;;;1999.90;999.90;;;6.20;99.90;;;;;;5069789;28;20477;-75
2022/09/29 02:53:50;;;;;;;1999.90;999.90;;;6.10;99.90;;;;;;5066023;28;20465;-74
2022/09/29 02:56:27;;;;;;;1999.90;999.90;;;6.00;99.90;;;;;;5069325;28;20902;-74
2022/09/29 02:58:59;;;;;;;1999.90;999.90;;;5.90;99.90;;;;;;5069725;28;20461;-75
2022/09/29 03:01:25;;;;;;;1999.90;999.90;;;6.00;99.90;;;;;;5066384;28;20481;-76
2022/09/29 03:03:52;;;;;;;1999.90;999.90;;;5.90;99.90;;;;;;5069143;28;20469;-74
2022/09/29 03:06:21;;;;;;;1999.90;999.90;;;6.00;99.90;;;;;;5069249;28;20458;-74
2022/09/29 03:08:47;;;;;;;1999.90;999.90;;;5.90;99.90;;;;;;5072251;28;20461;-75
2022/09/29 03:11:14;;;;;;;1999.90;999.90;;;5.90;99.90;;;;;;5070899;28;20491;-74
2022/09/29 03:13:41;;;;;;;1999.90;999.90;;;5.90;99.90;;;;;;5072489;28;20460;-74
2022/09/29 03:16:08;;;;;;;1999.90;999.90;;;5.80;99.90;;;;;;5073111;28;20481;-75
2022/09/29 03:18:35;;;;;;;1999.90;999.90;;;5.90;99.90;;;;;;5071581;28;20457;-74
2022/09/29 03:21:02;;;;;;;1999.90;999.90;;;5.80;99.90;;;;;;5071800;28;20477;-75
2022/09/29 03:23:30;;;;;;;1999.90;999.90;;;5.90;99.90;;;;;;5072811;28;20457;-74
2022/09/29 03:25:56;;;;;;;1999.90;999.90;;;5.90;99.90;;;;;;5071367;28;20459;-75
2022/09/29 03:28:23;;;;;;;1999.90;999.90;;;5.90;99.90;;;;;;5072816;28;20469;-75
2022/09/29 03:30:50;;;;;;;1999.90;999.90;;;5.90;99.90;;;;;;5071726;28;20497;-75
2022/09/29 03:33:17;;;;;;;1999.90;999.90;;;5.90;99.90;;;;;;5073498;28;20564;-75
2022/09/29 03:35:44;;;;;;;1999.90;999.90;;;5.90;99.90;;;;;;5071836;28;20461;-74
2022/09/29 03:38:10;;;;;;;1999.90;999.90;;;5.90;99.90;;;;;;5073284;28;20865;-75
2022/09/29 03:40:39;;;;;;;1999.90;999.90;;;5.90;99.90;;;;;;5072915;28;20478;-74
2022/09/29 03:43:05;;;;;;;1999.90;999.90;;;5.80;99.90;;;;;;5071683;28;20519;-74
2022/09/29 03:45:32;;;;;;;1999.90;999.90;;;5.80;99.90;;;;;;5071231;28;20964;-74
2022/09/29 03:47:59;;;;;;;1999.90;999.90;;;5.90;99.90;;;;;;5071970;28;20819;-75
2022/09/29 03:50:26;;;;;;;1999.90;999.90;;;5.90;99.90;;;;;;5069018;28;20469;-75
2022/09/29 03:52:52;;;;;;;1999.90;999.90;;;5.90;99.90;;;;;;5070912;28;20469;-75
2022/09/29 03:55:19;;;;;;;1999.90;999.90;;;5.90;99.90;;;;;;5071820;28;20466;-75
2022/09/29 03:57:47;;;;;;;1999.90;999.90;;;5.90;99.90;;;;;;5071317;28;20496;-74
2022/09/29 04:00:15;;;;;;;1999.90;999.90;;;5.80;99.90;;;;;;5070653;28;20461;-75
2022/09/29 04:02:42;;;;;;;1999.90;999.90;;;5.70;99.90;;;;;;5071440;28;20541;-74
2022/09/29 04:05:08;;;;;;;1999.90;999.90;;;5.60;99.90;;;;;;5073343;28;20462;-76
2022/09/29 04:07:35;;;;;;;1999.90;999.90;;;5.60;99.90;;;;;;5070103;28;20461;-74
2022/09/29 04:10:02;;;;;;;1999.90;999.90;;;5.60;99.90;;;;;;5075255;28;20469;-75
2022/09/29 04:12:29;;;;;;;1999.90;999.90;;;5.60;99.90;;;;;;5075759;28;20453;-75
2022/09/29 04:14:57;;;;;;;1999.90;999.90;;;5.50;99.90;;;;;;5070559;28;20465;-75
2022/09/29 04:17:24;;;;;;;1999.90;999.90;;;5.40;99.90;;;;;;5070986;28;20527;-74
2022/09/29 04:19:50;;;;;;;1999.90;999.90;;;5.50;99.90;;;;;;5069107;28;20468;-75
2022/09/29 04:22:17;;;;;;;1999.90;999.90;;;5.40;99.90;;;;;;5071698;28;20481;-75
2022/09/29 04:24:44;;;;;;;1999.90;999.90;;;5.40;99.90;;;;;;5069808;28;20462;-74
2022/09/29 04:27:11;;;;;;;1999.90;999.90;;;5.40;99.90;;;;;;5074661;28;20475;-75
2022/09/29 04:29:38;;;;;;;1999.90;999.90;;;5.40;99.90;;;;;;5070922;28;20956;-75
2022/09/29 04:32:07;;;;;;;1999.90;999.90;;;5.30;99.90;;;;;;5069206;28;20874;-75
2022/09/29 04:34:34;;;;;;;1999.90;999.90;;;5.20;99.90;;;;;;5068920;28;20481;-75
2022/09/29 04:37:01;;;;;;;1999.90;999.90;;;5.10;99.90;;;;;;5070918;28;20481;-75
2022/09/29 04:39:28;;;;;;;1999.90;999.90;;;5.10;99.90;;;;;;5070405;28;20464;-75
2022/09/29 04:41:55;;;;;;;1999.90;999.90;;;5.10;99.90;;;;;;5069561;28;20485;-75
2022/09/29 04:44:23;;;;;;;1999.90;999.90;;;5.10;99.90;;;;;;5070114;28;21250;-74
2022/09/29 04:46:50;;;;;;;1999.90;999.90;;;5.10;99.90;;;;;;5070116;28;20457;-75
2022/09/29 04:49:19;;;;;;;1999.90;999.90;;;5.20;99.90;;;;;;5070087;28;20519;-75
2022/09/29 04:51:46;;;;;;;1999.90;999.90;;;5.10;99.90;;;;;;5069840;28;20489;-75
2022/09/29 04:54:13;;;;;;;1999.90;999.90;;;5.00;99.90;;;;;;5071634;28;20836;-75
2022/09/29 04:56:40;;;;;;;1999.90;999.90;;;5.10;99.90;;;;;;5071287;28;20484;-75
2022/09/29 04:59:07;;;;;;;1999.90;999.90;;;5.00;99.90;;;;;;5072405;28;20951;-75
2022/09/29 05:01:34;;;;;;;1999.90;999.90;;;5.00;99.90;;;;;;5072746;28;20935;-75
2022/09/29 05:04:01;;;;;;;1999.90;999.90;;;4.90;99.90;;;;;;5070965;28;20458;-75
2022/09/29 05:06:29;;;;;;;1999.90;999.90;;;4.90;99.90;;;;;;5070084;28;20458;-75
2022/09/29 05:08:56;;;;;;;1999.90;999.90;;;4.90;99.90;;;;;;5068378;28;20497;-75
2022/09/29 05:11:22;;;;;;;1999.90;999.90;;;4.90;99.90;;;;;;5072438;28;20488;-75
2022/09/29 05:13:50;;;;;;;1999.90;999.90;;;4.90;99.90;;;;;;5070488;28;20465;-75
2022/09/29 05:16:17;;;;;;;1999.90;999.90;;;4.90;99.90;;;;;;5068812;28;20515;-74
2022/09/29 05:18:43;;;;;;;1999.90;999.90;;;4.90;99.90;;;;;;5068826;28;20457;-75
2022/09/29 05:21:10;;;;;;;1999.90;999.90;;;4.90;99.90;;;;;;5066107;28;20856;-75
2022/09/29 05:23:38;;;;;;;1999.90;999.90;;;4.90;99.90;;;;;;5064110;28;20810;-74
2022/09/29 05:26:07;;;;;;;1999.90;999.90;;;4.80;99.90;;;;;;5066783;28;20468;-75
2022/09/29 05:28:34;;;;;;;1999.90;999.90;;;5.00;99.90;;;;;;5070306;28;20481;-75
2022/09/29 05:31:02;;;;;;;1999.90;999.90;;;4.70;99.90;;;;;;5071300;28;20476;-75
2022/09/29 05:33:28;;;;;;;1999.90;999.90;;;4.80;99.90;;;;;;5097801;22;20495;-70
2022/09/29 05:35:56;;;;;;;1999.90;999.90;;;4.80;99.90;;;;;;5081674;28;20446;-69
2022/09/29 05:38:22;;;;;;;1999.90;999.90;;;4.70;99.90;;;;;;5085882;28;20487;-69
2022/09/29 05:40:51;;;;;;;1999.90;999.90;;;4.80;99.90;;;;;;5090479;28;20453;-69
2022/09/29 05:43:18;;;;;;;1999.90;999.90;;;4.80;99.90;;;;;;5090971;28;20535;-70
2022/09/29 05:45:44;;;;;;;1999.90;999.90;;;4.90;99.90;;;;;;5093110;28;20809;-69
2022/09/29 05:48:11;;;;;;;1999.90;999.90;;;4.90;99.90;;;;;;5093377;28;20436;-69
2022/09/29 05:50:40;;;;;;;1999.90;999.90;;;5.00;99.90;;;;;;5090121;28;20440;-69
2022/09/29 05:53:07;;;;;;;1999.90;999.90;;;5.00;99.90;;;;;;5088103;28;21284;-70
2022/09/29 05:55:35;;;;;;;1999.90;999.90;;;5.10;99.90;;;;;;5083562;28;20461;-69
2022/09/29 05:58:03;;;;;;;1999.90;999.90;;;5.20;99.90;;;;;;5086063;28;20495;-69
2022/09/29 06:00:32;;;;;;;1999.90;999.90;;;5.20;99.90;;;;;;5087512;28;20648;-70
2022/09/29 06:02:59;;;;;;;1999.90;999.90;;;5.20;99.90;;;;;;5082874;28;20465;-68
2022/09/29 06:05:26;;;;;;;1999.90;999.90;;;5.30;99.90;;;;;;5083581;28;20465;-70
2022/09/29 06:07:53;;;;;;;1999.90;999.90;;;5.20;99.90;;;;;;5085334;28;20464;-68
2022/09/29 06:10:20;;;;;;;1999.90;999.90;;;5.30;99.90;;;;;;5087434;28;20464;-70
2022/09/29 06:12:47;;;;;;;1999.90;999.90;;;5.30;99.90;;;;;;5086251;28;20456;-69
2022/09/29 06:15:15;;;;;;;1999.90;999.90;;;5.30;99.90;;;;;;5088407;28;20488;-69
2022/09/29 06:17:42;;;;;;;1999.90;999.90;;;5.50;99.90;;;;;;5087938;28;20479;-70
2022/09/29 06:20:09;;;;;;;1999.90;999.90;;;5.50;99.90;;;;;;5085844;28;20465;-70
2022/09/29 06:22:36;;;;;;;1999.90;999.90;;;5.70;99.90;;;;;;5085931;28;20460;-69
2022/09/29 06:25:03;;;;;;;1999.90;999.90;;;5.80;99.90;;;;;;5084889;28;20480;-69
2022/09/29 06:27:29;;;;;;;1999.90;999.90;;;6.00;99.90;;;;;;5083800;28;20456;-70
2022/09/29 06:29:56;;;;;;;1999.90;999.90;;;6.20;99.90;;;;;;5089114;28;20479;-70
2022/09/29 06:32:24;;;;;;;1999.90;999.90;;;6.40;99.90;;;;;;5089535;28;20456;-70
2022/09/29 06:37:35;;;;;;;1999.90;999.90;;;6.80;99.90;;;;;;5089887;28;20473;-70
2022/09/29 06:40:03;;;;;;;1999.90;999.90;;;7.00;99.90;;;;;;5090058;28;20483;-70
2022/09/29 06:42:30;;;;;;;1999.90;999.90;;;7.20;99.90;;;;;;5090751;28;20551;-70
2022/09/29 06:44:57;;;;;;;1999.90;999.90;;;7.50;99.90;;;;;;5092700;28;20488;-70
2022/09/29 06:47:25;;;;;;;1999.90;999.90;;;7.70;99.90;;;;;;5093491;28;20452;-73
2022/09/29 06:49:52;;;;;;;1999.90;999.90;;;8.10;99.90;;;;;;5092999;28;20506;-73
2022/09/29 06:52:19;;;;;;;1999.90;999.90;;;8.10;99.90;;;;;;5092808;28;20452;-73
2022/09/29 06:54:45;;;;;;;1999.90;999.90;;;8.20;99.90;;;;;;5085919;28;20507;-71
2022/09/29 06:57:12;;;;;;;1999.90;999.90;;;8.50;99.90;;;;;;5091229;28;20476;-71
2022/09/29 06:59:39;;;;;;;1999.90;999.90;;;8.70;99.90;;;;;;5091526;28;20456;-70
2022/09/29 07:02:06;;;;;;;1999.90;999.90;;;9.00;99.90;;;;;;5092097;28;20464;-71
2022/09/29 07:04:34;;;;;;;1999.90;999.90;;;9.10;99.90;;;;;;5090171;28;20483;-72
2022/09/29 07:07:01;;;;;;;1999.90;999.90;;;9.30;99.90;;;;;;5086450;28;20579;-70
2022/09/29 07:09:28;;;;;;;1999.90;999.90;;;9.50;99.90;;;;;;5088958;28;20456;-72
2022/09/29 07:11:55;;;;;;;1999.90;999.90;;;9.70;99.90;;;;;;5085996;28;20460;-71
2022/09/29 07:14:24;;;;;;;1999.90;999.90;;;9.90;99.90;;;;;;5089449;28;20476;-69
2022/09/29 07:16:51;;;;;;;1999.90;999.90;;;10.20;99.90;;;;;;5088711;28;20456;-71
2022/09/29 07:19:19;;;;;;;1999.90;999.90;;;10.40;99.90;;;;;;5089009;28;20964;-71
2022/09/29 07:21:47;;;;;;;1999.90;999.90;;;10.50;99.90;;;;;;5090392;28;20948;-70
2022/09/29 07:24:14;;;;;;;1999.90;999.90;;;10.70;99.90;;;;;;5086364;28;20479;-72
2022/09/29 07:26:41;;;;;;;1999.90;999.90;;;10.70;99.90;;;;;;5086176;28;20463;-69
2022/09/29 07:29:09;;;;;;;1999.90;999.90;;;11.00;99.90;;;;;;5091047;28;20463;-71
2022/09/29 07:31:35;;;;;;;1999.90;999.90;;;10.80;99.90;;;;;;5089354;28;20506;-72
2022/09/29 07:34:02;;;;;;;1999.90;999.90;;;10.80;99.90;;;;;;5094827;28;20548;-70
2022/09/29 07:36:29;;;;;;;1999.90;999.90;;;11.00;99.90;;;;;;5090201;28;20461;-70
2022/09/29 07:38:57;;;;;;;1999.90;999.90;;;11.30;99.90;;;;;;5095564;28;20848;-72
2022/09/29 07:41:24;;;;;;;1999.90;999.90;;;11.60;99.90;;;;;;5093971;28;20460;-69
2022/09/29 07:43:52;;;;;;;1999.90;999.90;;;11.70;99.90;;;;;;5087339;28;20464;-66
2022/09/29 07:46:19;;;;;;;1999.90;999.90;;;11.90;99.90;;;;;;5090808;28;20456;-69
2022/09/29 07:48:45;;;;;;;1999.90;999.90;;;12.20;99.90;;;;;;5088197;28;20458;-69
2022/09/29 07:51:14;;;;;;;1999.90;999.90;;;12.40;99.90;;;;;;5093790;28;20456;-69
2022/09/29 07:53:41;;;;;;;1999.90;999.90;;;12.60;99.90;;;;;;5091620;28;20499;-68
2022/09/29 07:56:11;;;;;;;1999.90;999.90;;;12.60;99.90;;;;;;5090431;28;20465;-71
2022/09/29 07:58:38;;;;;;;1999.90;999.90;;;12.80;99.90;;;;;;5091097;28;20842;-69
2022/09/29 08:01:09;;;;;;;1999.90;999.90;;;12.70;99.90;;;;;;5083499;28;20468;-68
2022/09/29 08:03:36;;;;;;;1999.90;999.90;;;12.80;99.90;;;;;;5087301;28;20492;-70
2022/09/29 08:06:03;;;;;;;1999.90;999.90;;;12.80;99.90;;;;;;5087082;28;20465;-69
2022/09/29 08:08:30;;;;;;;1999.90;999.90;;;12.90;99.90;;;;;;5089351;28;20832;-69
2022/09/29 08:11:04;;;;;;;1999.90;999.90;;;13.10;99.90;;;;;;5084338;28;20460;-69
2022/09/29 08:13:33;;;;;;;1999.90;999.90;;;13.30;99.90;;;;;;5079103;28;20483;-69
2022/09/29 08:16:00;;;;;;;1999.90;999.90;;;13.30;99.90;;;;;;5087404;28;20864;-68
2022/09/29 08:18:28;;;;;;;1999.90;999.90;;;13.40;99.90;;;;;;5088482;28;21027;-69
2022/09/29 08:20:54;;;;;;;1999.90;999.90;;;13.60;99.90;;;;;;5089194;28;20492;-71
2022/09/29 08:23:22;;;;;;;1999.90;999.90;;;13.50;99.90;;;;;;5091656;28;20464;-70
2022/09/29 08:25:48;;;;;;;1999.90;999.90;;;13.60;99.90;;;;;;5092402;28;20464;-69
2022/09/29 08:28:15;;;;;;;1999.90;999.90;;;13.70;99.90;;;;;;5092733;28;20453;-69
2022/09/29 08:30:44;;;;;;;1999.90;999.90;;;13.70;99.90;;;;;;5093365;28;20531;-69
2022/09/29 08:33:13;;;;;;;1999.90;999.90;;;13.90;99.90;;;;;;5092804;28;20467;-68
2022/09/29 08:35:40;;;;;;;1999.90;999.90;;;13.80;99.90;;;;;;5093381;28;20433;-70
2022/09/29 08:38:07;;;;;;;1999.90;999.90;;;13.90;99.90;;;;;;5093491;28;20480;-71
2022/09/29 08:40:35;;;;;;;1999.90;999.90;;;13.80;99.90;;;;;;5093131;28;20448;-72
2022/09/29 08:43:10;;;;;;;1999.90;999.90;;;13.70;99.90;;;;;;5092799;28;20445;-72
2022/09/29 08:45:43;;;;;;;1999.90;999.90;;;13.80;99.90;;;;;;5092764;28;20455;-71
2022/09/29 08:48:15;;;;;;;1999.90;999.90;;;13.90;99.90;;;;;;5093293;28;20448;-70
2022/09/29 08:50:47;;;;;;;1999.90;999.90;;;14.10;99.90;;;;;;5093203;28;20440;-71
2022/09/29 08:53:17;;;;;;;1999.90;999.90;;;14.10;99.90;;;;;;5093118;28;20440;-71
2022/09/29 08:55:51;;;;;;;1999.90;999.90;;;14.30;99.90;;;;;;5091506;28;20465;-71
2022/09/29 08:58:18;;;;;;;1999.90;999.90;;;14.40;99.90;;;;;;5088463;28;20478;-72
2022/09/29 09:00:55;;;;;;;1999.90;999.90;;;14.60;99.90;;;;;;5086425;28;20460;-72
2022/09/29 09:03:53;;;;;;;1999.90;999.90;;;14.80;99.90;;;;;;5086282;28;20479;-71
2022/09/29 09:06:31;;;;;;;1999.90;999.90;;;14.60;99.90;;;;;;5066174;28;20477;-70
2022/09/29 09:09:09;;;;;;;1999.90;999.90;;;14.60;99.90;;;;;;5088915;28;20466;-71
2022/09/29 09:11:50;;;;;;;1999.90;999.90;;;14.70;99.90;;;;;;5084289;28;20475;-71
2022/09/29 09:14:29;;;;;;;1999.90;999.90;;;14.70;99.90;;;;;;5085208;28;20852;-69
2022/09/29 09:17:10;;;;;;;1999.90;999.90;;;14.40;99.90;;;;;;5084480;28;20456;-70
2022/09/29 09:19:54;;;;;;;1999.90;999.90;;;14.10;99.90;;;;;;5083366;28;20531;-71
2022/09/29 09:22:23;;;;;;;1999.90;999.90;;;14.30;99.90;;;;;;5083310;28;20456;-71
2022/09/29 09:24:56;;;;;;;1999.90;999.90;;;14.40;99.90;;;;;;5083524;28;20487;-71
2022/09/29 09:27:27;;;;;;;1999.90;999.90;;;14.30;99.90;;;;;;5083436;28;20457;-72
2022/09/29 09:30:05;;;;;;;1999.90;999.90;;;14.60;99.90;;;;;;5084879;28;20467;-70
2022/09/29 09:32:37;;;;;;;1999.90;999.90;;;14.70;99.90;;;;;;5087967;28;20463;-71
2022/09/29 09:35:21;;;;;;;1999.90;999.90;;;14.90;99.90;;;;;;5088581;28;20489;-71
2022/09/29 09:37:49;;;;;;;1999.90;999.90;;;14.70;99.90;;;;;;5087121;28;20480;-72
2022/09/29 09:40:20;;;;;;;1999.90;999.90;;;14.80;99.90;;;;;;5092224;28;20446;-72
2022/09/29 09:42:51;;;;;;;1999.90;999.90;;;14.90;99.90;;;;;;5092446;28;20480;-72
2022/09/29 09:45:25;;;;;;;1999.90;999.90;;;14.90;99.90;;;;;;5091877;28;20460;-72
2022/09/29 09:47:59;;;;;;;1999.90;999.90;;;14.80;99.90;;;;;;5090221;28;20448;-70
2022/09/29 09:50:28;;;;;;;1999.90;999.90;;;14.90;99.90;;;;;;5088922;28;20971;-72
2022/09/29 09:52:59;;;;;;;1999.90;999.90;;;14.80;99.90;;;;;;5091221;28;20468;-72
2022/09/29 09:55:26;;;;;;;1999.90;999.90;;;14.90;99.90;;;;;;5086892;28;20558;-72
2022/09/29 09:58:09;;;;;;;1999.90;999.90;;;14.80;99.90;;;;;;5087603;28;20507;-72
2022/09/29 10:00:41;;;;;;;1999.90;999.90;;;15.00;99.90;;;;;;5088247;28;20464;-73
2022/09/29 10:03:09;;;;;;;1999.90;999.90;;;15.20;99.90;;;;;;5086637;28;20461;-72
2022/09/29 10:05:39;;;;;;;1999.90;999.90;;;15.10;99.90;;;;;;5081694;28;20463;-72
2022/09/29 10:08:10;;;;;;;1999.90;999.90;;;15.20;99.90;;;;;;5087164;28;20459;-72
2022/09/29 10:10:37;;;;;;;1999.90;999.90;;;15.40;99.90;;;;;;5087282;28;20453;-71
2022/09/29 10:13:07;;;;;;;1999.90;999.90;;;15.30;99.90;;;;;;5084368;28;21167;-72
2022/09/29 10:15:40;;;;;;;1999.90;999.90;;;15.70;99.90;;;;;;5082472;28;22446;-72
2022/09/29 10:18:13;;;;;;;1999.90;999.90;;;15.60;99.90;;;;;;5084147;28;20491;-71
2022/09/29 10:20:41;;;;;;;1999.90;999.90;;;15.40;99.90;;;;;;5087427;28;20967;-72
2022/09/29 10:23:32;;;;;;;1999.90;999.90;;;15.10;99.90;;;;;;5089531;28;20883;-70
2022/09/29 10:26:02;;;;;;;1999.90;999.90;;;14.50;99.90;;;;;;5084743;28;20455;-70
2022/09/29 10:28:37;;;;;;;1999.90;999.90;;;14.30;99.90;;;;;;5088456;28;20452;-71
2022/09/29 10:31:16;;;;;;;1999.90;999.90;;;14.50;99.90;;;;;;5085951;28;21002;-70
2022/09/29 10:33:48;;;;;;;1999.90;999.90;;;14.70;99.90;;;;;;5082530;28;21026;-72
2022/09/29 10:36:19;;;;;;;1999.90;999.90;;;15.20;99.90;;;;;;5084905;28;20976;-74
2022/09/29 10:38:47;;;;;;;1999.90;999.90;;;15.10;99.90;;;;;;5088190;28;20820;-73
2022/09/29 10:41:14;;;;;;;1999.90;999.90;;;15.40;99.90;;;;;;5086334;28;20847;-73
2022/09/29 10:43:42;;;;;;;1999.90;999.90;;;15.90;99.90;;;;;;5085914;28;20861;-73
2022/09/29 10:46:35;;;;;;;1999.90;999.90;;;16.00;99.90;;;;;;5083530;28;20472;-72
2022/09/29 10:49:10;;;;;;;1999.90;999.90;;;16.30;99.90;;;;;;5084533;28;20460;-73
2022/09/29 10:51:40;;;;;;;1999.90;999.90;;;15.90;99.90;;;;;;5084131;28;20546;-73
2022/09/29 10:54:08;;;;;;;1999.90;999.90;;;15.70;99.90;;;;;;5082420;28;21524;-72
2022/09/29 10:56:34;;;;;;;1999.90;999.90;;;15.60;99.90;;;;;;5081532;28;21185;-71
2022/09/29 10:59:03;;;;;;;1999.90;999.90;;;15.30;99.90;;;;;;5085944;28;20476;-71
2022/09/29 11:01:32;;;;;;;1999.90;999.90;;;15.00;99.90;;;;;;5082693;28;20465;-70
2022/09/29 11:04:03;;;;;;;1999.90;999.90;;;14.90;99.90;;;;;;5078563;28;20479;-71
2022/09/29 11:06:31;;;;;;;1999.90;999.90;;;14.90;99.90;;;;;;5079661;28;20457;-71
2022/09/29 11:09:01;;;;;;;1999.90;999.90;;;15.10;99.90;;;;;;5083664;28;20457;-72
2022/09/29 11:11:31;;;;;;;1999.90;999.90;;;15.30;99.90;;;;;;5081388;28;20452;-71
2022/09/29 11:13:59;;;;;;;1999.90;999.90;;;15.60;99.90;;;;;;5087214;28;21015;-71
2022/09/29 11:16:30;;;;;;;1999.90;999.90;;;16.00;99.90;;;;;;5080287;28;20460;-72
2022/09/29 11:19:01;;;;;;;1999.90;999.90;;;16.30;99.90;;;;;;5085928;28;20508;-69
2022/09/29 11:21:58;;;;;;;1999.90;999.90;;;16.60;99.90;;;;;;5080137;28;20460;-69
2022/09/29 11:24:42;;;;;;;1999.90;999.90;;;16.40;99.90;;;;;;5079580;28;20488;-68
2022/09/29 11:27:19;;;;;;;1999.90;999.90;;;16.20;99.90;;;;;;5081103;28;21019;-71
2022/09/29 11:29:54;;;;;;;1999.90;999.90;;;15.80;99.90;;;;;;5081748;28;20452;-71
2022/09/29 11:32:36;;;;;;;1999.90;999.90;;;15.50;99.90;;;;;;5087321;28;20848;-71
2022/09/29 11:35:19;;;;;;;1999.90;999.90;;;15.40;99.90;;;;;;5091593;28;20494;-72
2022/09/29 11:38:05;;;;;;;1999.90;999.90;;;15.10;99.90;;;;;;5091298;28;20456;-71
2022/09/29 11:40:41;;;;;;;1999.90;999.90;;;15.00;99.90;;;;;;5088141;28;20452;-71
2022/09/29 11:43:25;;;;;;;1999.90;999.90;;;14.70;99.90;;;;;;5091510;28;20468;-72
2022/09/29 11:46:01;;;;;;;1999.90;999.90;;;14.80;99.90;;;;;;5087708;28;20849;-71
2022/09/29 11:48:59;;;;;;;1999.90;999.90;;;15.10;99.90;;;;;;5088812;28;20448;-71
2022/09/29 11:51:32;;;;;;;1999.90;999.90;;;15.60;99.90;;;;;;5087961;28;21001;-69
2022/09/29 11:54:25;;;;;;;1999.90;999.90;;;16.10;99.90;;;;;;5081680;28;20480;-72
2022/09/29 11:56:59;;;;;;;1999.90;999.90;;;16.20;99.90;;;;;;5089466;28;20460;-71
2022/09/29 11:59:40;;;;;;;1999.90;999.90;;;16.20;99.90;;;;;;5087162;28;20496;-71
2022/09/29 12:02:37;;;;;;;1999.90;999.90;;;16.10;99.90;;;;;;5091531;28;20460;-71
2022/09/29 12:05:16;;;;;;;1999.90;999.90;;;16.20;99.90;;;;;;5085332;28;20476;-71
2022/09/29 12:07:56;;;;;;;1999.90;999.90;;;15.90;99.90;;;;;;5091388;28;20461;-70
2022/09/29 12:10:37;;;;;;;1999.90;999.90;;;15.60;99.90;;;;;;5084644;28;20453;-70
2022/09/29 12:13:12;;;;;;;1999.90;999.90;;;15.40;99.90;;;;;;5083734;28;20479;-69
2022/09/29 12:15:50;;;;;;;1999.90;999.90;;;15.50;99.90;;;;;;5085541;28;20513;-72
2022/09/29 12:18:20;;;;;;;1999.90;999.90;;;15.60;99.90;;;;;;5085286;28;20452;-70
2022/09/29 12:20:51;;;;;;;1999.90;999.90;;;15.60;99.90;;;;;;5087561;28;20506;-71
2022/09/29 12:23:21;;;;;;;1999.90;999.90;;;15.50;99.90;;;;;;5083770;28;20480;-71